Courtland, Alabama
Current Conditions -  °F | °C
As of 7:53 AM on Monday 26 Jan 2015 (Local Time) from KMSL Reporting Station
Overcast Overcast  
Wind Chill: 29°   Ceiling: 1700
Heat Index: 37°   Visibility: 10mi
Dew Point: 30°   Wind: 13mph
Humidity: 76%   Direction: 310°NW
Pressure: 30.02"   Gusts: NA
Location:  34.67°N, 87.31°W
Report Text: KMSL 261353Z AUTO 31011KT 10SM OVC017 03/M01 A3002 RMK AO2 SLP168 T00281011
Loading
Personal Weather Stations






























Interactive Weather Map New forecast layout! Learn more

10-Day Weather Forecast

Advertisements
Track Severe Weather on mobile